Time,TemperatureF,DewpointF,PressureIn,WindDirection,WindDirectionDegrees,WindSpeedMPH,WindSpeedGustMPH,Humidity,HourlyPrecipIn,Conditions,Clouds,dailyrainin,SoftwareType,DateUTC
2013-02-20 00:01:00,33.0,29.0,-100.00,North,-999,0.0,0.0,83,-99.99,,,-99.99,,2013-02-20 08:01:00,
2013-02-20 00:11:00,32.0,29.0,-100.00,North,-999,0.0,0.0,85,-99.99,,,-99.99,,2013-02-20 08:11:00,
2013-02-20 00:21:00,32.0,29.0,-100.00,North,-999,0.0,0.0,85,-99.99,,,-99.99,,2013-02-20 08:21:00,
2013-02-20 00:31:00,32.0,29.0,-100.00,North,-999,0.0,0.0,85,-99.99,,,-99.99,,2013-02-20 08:31:00,
2013-02-20 00:41:00,33.0,29.0,-100.00,North,-999,0.0,0.0,86,-99.99,,,-99.99,,2013-02-20 08:41:00,
2013-02-20 00:52:00,33.0,29.0,-100.00,North,-999,0.0,0.0,86,-99.99,,,-99.99,,2013-02-20 08:52:00,
2013-02-20 01:01:00,33.0,30.0,-100.00,NE,45,1.0,2.0,87,-99.99,,,-99.99,,2013-02-20 09:01:00,
2013-02-20 01:11:00,33.0,30.0,-100.00,SE,135,0.0,1.0,87,-99.99,,,-99.99,,2013-02-20 09:11:00,
2013-02-20 01:21:00,33.0,30.0,-100.00,SE,135,0.0,1.0,87,-99.99,,,-99.99,,2013-02-20 09:21:00,
2013-02-20 01:31:00,34.0,30.0,-100.00,North,-999,0.0,0.0,88,-99.99,,,-99.99,,2013-02-20 09:31:00,
2013-02-20 01:41:00,34.0,31.0,-100.00,North,-999,0.0,0.0,88,-99.99,,,-99.99,,2013-02-20 09:41:00,
2013-02-20 01:52:00,34.0,31.0,-100.00,North,-999,0.0,0.0,88,-99.99,,,-99.99,,2013-02-20 09:52:00,
2013-02-20 02:01:00,34.0,31.0,-100.00,SW,225,1.0,2.0,89,-99.99,,,-99.99,,2013-02-20 10:01:00,
2013-02-20 02:12:00,35.0,32.0,-100.00,South,180,1.0,1.0,89,-99.99,,,-99.99,,2013-02-20 10:12:00,
2013-02-20 02:21:00,35.0,32.0,-100.00,South,180,1.0,1.0,89,-99.99,,,-99.99,,2013-02-20 10:21:00,
2013-02-20 02:31:00,34.0,31.0,-100.00,North,-999,0.0,0.0,89,-99.99,,,-99.99,,2013-02-20 10:31:00,
2013-02-20 02:41:00,34.0,32.0,-100.00,SW,225,1.0,1.0,89,-99.99,,,-99.99,,2013-02-20 10:41:00,
2013-02-20 02:52:00,34.0,32.0,-100.00,SW,225,1.0,1.0,89,-99.99,,,-99.99,,2013-02-20 10:52:00,
2013-02-20 03:01:00,34.0,31.0,-100.00,North,-999,0.0,0.0,89,-99.99,,,-99.99,,2013-02-20 11:01:00,
2013-02-20 03:11:00,34.0,31.0,-100.00,North,-999,0.0,0.0,89,-99.99,,,-99.99,,2013-02-20 11:11:00,
2013-02-20 03:21:00,34.0,31.0,-100.00,North,-999,0.0,0.0,89,-99.99,,,-99.99,,2013-02-20 11:21:00,
2013-02-20 03:31:00,34.0,31.0,-100.00,North,-999,0.0,0.0,90,-99.99,,,-99.99,,2013-02-20 11:31:00,
2013-02-20 03:41:00,34.0,32.0,-100.00,North,-999,0.0,0.0,90,-99.99,,,-99.99,,2013-02-20 11:41:00,
2013-02-20 03:52:00,34.0,32.0,-100.00,North,-999,0.0,0.0,90,-99.99,,,-99.99,,2013-02-20 11:52:00,
2013-02-20 04:01:00,35.0,32.0,-100.00,SW,225,0.0,1.0,90,-99.99,,,-99.99,,2013-02-20 12:01:00,
2013-02-20 04:11:00,35.0,32.0,-100.00,North,-999,0.0,0.0,90,-99.99,,,-99.99,,2013-02-20 12:11:00,
2013-02-20 04:21:00,35.0,32.0,-100.00,North,-999,0.0,0.0,90,-99.99,,,-99.99,,2013-02-20 12:21:00,
2013-02-20 04:31:00,35.0,32.0,-100.00,North,-999,0.0,0.0,90,-99.99,,,-99.99,,2013-02-20 12:31:00,
2013-02-20 04:42:00,35.0,33.0,-100.00,North,-999,0.0,0.0,90,-99.99,,,-99.99,,2013-02-20 12:42:00,
2013-02-20 04:52:00,36.0,33.0,-100.00,NE,45,1.0,2.0,90,-99.99,,,-99.99,,2013-02-20 12:52:00,
2013-02-20 05:00:00,36.0,33.0,-100.00,NE,45,1.0,1.0,90,-99.99,,,-99.99,,2013-02-20 13:00:00,
2013-02-20 05:01:00,36.0,33.0,-100.00,NE,45,1.0,2.0,90,-99.99,,,-99.99,,2013-02-20 13:01:00,
2013-02-20 05:11:00,36.0,33.0,-100.00,NE,45,1.0,2.0,90,-99.99,,,-99.99,,2013-02-20 13:11:00,
2013-02-20 05:22:00,36.0,33.0,-100.00,NE,45,1.0,2.0,90,-99.99,,,-99.99,,2013-02-20 13:22:00,
2013-02-20 05:31:00,36.0,33.0,-100.00,NE,45,1.0,1.0,90,-99.99,,,-99.99,,2013-02-20 13:31:00,
2013-02-20 05:42:00,36.0,33.0,-100.00,NE,45,1.0,1.0,90,-99.99,,,-99.99,,2013-02-20 13:42:00,
2013-02-20 05:52:00,36.0,33.0,-100.00,NE,45,1.0,1.0,90,-99.99,,,-99.99,,2013-02-20 13:52:00,
2013-02-20 06:11:00,36.0,33.0,-100.00,North,-999,0.0,0.0,90,-99.99,,,-99.99,,2013-02-20 14:11:00,
2013-02-20 06:21:00,36.0,33.0,-100.00,North,-999,0.0,0.0,90,-99.99,,,-99.99,,2013-02-20 14:21:00,
2013-02-20 06:32:00,35.0,32.0,-100.00,North,-999,0.0,0.0,90,-99.99,,,-99.99,,2013-02-20 14:32:00,
2013-02-20 06:42:00,34.0,32.0,-100.00,South,180,1.0,3.0,90,-99.99,,,-99.99,,2013-02-20 14:42:00,
2013-02-20 06:52:00,34.0,32.0,-100.00,South,180,1.0,3.0,90,-99.99,,,-99.99,,2013-02-20 14:52:00,
2013-02-20 07:01:00,33.0,31.0,-100.00,North,-999,0.0,0.0,90,-99.99,,,-99.99,,2013-02-20 15:01:00,
2013-02-20 07:11:00,33.0,31.0,-100.00,East,90,0.0,1.0,90,-99.99,,,-99.99,,2013-02-20 15:11:00,
2013-02-20 07:22:00,33.0,31.0,-100.00,East,90,0.0,1.0,90,-99.99,,,-99.99,,2013-02-20 15:22:00,
2013-02-20 07:31:00,33.0,31.0,-100.00,North,-999,0.0,0.0,90,-99.99,,,-99.99,,2013-02-20 15:31:00,
2013-02-20 07:41:00,32.0,30.0,-100.00,SW,225,1.0,3.0,90,-99.99,,,-99.99,,2013-02-20 15:41:00,
2013-02-20 07:52:00,32.0,30.0,-100.00,SW,225,1.0,3.0,90,-99.99,,,-99.99,,2013-02-20 15:52:00,
2013-02-20 08:01:00,32.0,29.0,-100.00,North,-999,0.0,0.0,90,-99.99,,,-99.99,,2013-02-20 16:01:00,
2013-02-20 08:11:00,33.0,30.0,-100.00,North,-999,0.0,0.0,90,-99.99,,,-99.99,,2013-02-20 16:11:00,
2013-02-20 08:21:00,33.0,30.0,-100.00,North,-999,0.0,0.0,90,-99.99,,,-99.99,,2013-02-20 16:21:00,
2013-02-20 08:32:00,35.0,32.0,-100.00,South,180,2.0,4.0,90,-99.99,,,-99.99,,2013-02-20 16:32:00,
2013-02-20 08:41:00,37.0,35.0,-100.00,South,180,3.0,4.0,90,-99.99,,,-99.99,,2013-02-20 16:41:00,
2013-02-20 08:52:00,37.0,35.0,-100.00,South,180,3.0,4.0,90,-99.99,,,-99.99,,2013-02-20 16:52:00,
2013-02-20 09:01:00,37.0,35.0,-100.00,South,180,3.0,4.0,90,-99.99,,,-99.99,,2013-02-20 17:01:00,
2013-02-20 09:11:00,38.0,36.0,-100.00,SW,225,5.0,6.0,90,-99.99,,,-99.99,,2013-02-20 17:11:00,
2013-02-20 09:21:00,38.0,36.0,-100.00,SW,225,5.0,6.0,90,-99.99,,,-99.99,,2013-02-20 17:21:00,
2013-02-20 09:32:00,39.0,36.0,-100.00,SW,225,6.0,7.0,88,-99.99,,,-99.99,,2013-02-20 17:32:00,
2013-02-20 09:41:00,40.0,36.0,-100.00,South,180,7.0,8.0,85,-99.99,,,-99.99,,2013-02-20 17:41:00,
2013-02-20 09:52:00,41.0,35.0,-100.00,South,180,5.0,6.0,81,-99.99,,,-99.99,,2013-02-20 17:52:00,
2013-02-20 10:02:00,41.0,35.0,-100.00,South,180,5.0,6.0,81,-99.99,,,-99.99,,2013-02-20 18:02:00,
2013-02-20 10:11:00,41.0,35.0,-100.00,South,180,8.0,9.0,78,-99.99,,,-99.99,,2013-02-20 18:11:00,
2013-02-20 10:21:00,41.0,35.0,-100.00,South,180,8.0,9.0,78,-99.99,,,-99.99,,2013-02-20 18:21:00,
2013-02-20 10:31:00,42.0,35.0,-100.00,South,180,6.0,9.0,76,-99.99,,,-99.99,,2013-02-20 18:31:00,
2013-02-20 10:41:00,42.0,34.0,-100.00,SW,225,6.0,7.0,75,-99.99,,,-99.99,,2013-02-20 18:41:00,
2013-02-20 10:52:00,42.0,34.0,-100.00,SW,225,6.0,7.0,75,-99.99,,,-99.99,,2013-02-20 18:52:00,
2013-02-20 11:01:00,43.0,35.0,-100.00,SW,225,6.0,8.0,72,-99.99,,,-99.99,,2013-02-20 19:01:00,
2013-02-20 11:11:00,44.0,34.0,-100.00,South,180,8.0,10.0,68,-99.99,,,-99.99,,2013-02-20 19:11:00,
2013-02-20 11:21:00,44.0,34.0,-100.00,South,180,8.0,10.0,68,-99.99,,,-99.99,,2013-02-20 19:21:00,
2013-02-20 11:31:00,44.0,34.0,-100.00,SW,225,8.0,10.0,66,-99.99,,,-99.99,,2013-02-20 19:31:00,
2013-02-20 11:41:00,45.0,34.0,-100.00,South,180,9.0,10.0,63,-99.99,,,-99.99,,2013-02-20 19:41:00,
2013-02-20 11:52:00,45.0,34.0,-100.00,South,180,9.0,10.0,63,-99.99,,,-99.99,,2013-02-20 19:52:00,
2013-02-20 12:01:00,45.0,34.0,-100.00,South,180,9.0,10.0,63,-99.99,,,-99.99,,2013-02-20 20:01:00,
2013-02-20 12:11:00,47.0,33.0,-100.00,South,180,6.0,10.0,59,-99.99,,,-99.99,,2013-02-20 20:11:00,
2013-02-20 12:21:00,47.0,33.0,-100.00,South,180,6.0,10.0,59,-99.99,,,-99.99,,2013-02-20 20:21:00,
2013-02-20 12:31:00,47.0,32.0,-100.00,SW,225,7.0,8.0,57,-99.99,,,-99.99,,2013-02-20 20:31:00,
2013-02-20 12:41:00,47.0,32.0,-100.00,South,180,8.0,9.0,57,-99.99,,,-99.99,,2013-02-20 20:41:00,
2013-02-20 12:51:00,47.0,32.0,-100.00,South,180,8.0,9.0,57,-99.99,,,-99.99,,2013-02-20 20:51:00,
2013-02-20 13:01:00,47.0,30.0,-100.00,South,180,7.0,9.0,53,-99.99,,,-99.99,,2013-02-20 21:01:00,
2013-02-20 13:11:00,47.0,31.0,-100.00,South,180,5.0,8.0,53,-99.99,,,-99.99,,2013-02-20 21:11:00,
2013-02-20 13:31:00,47.0,31.0,-100.00,South,180,6.0,8.0,55,-99.99,,,-99.99,,2013-02-20 21:31:00,
2013-02-20 13:41:00,47.0,31.0,-100.00,South,180,6.0,8.0,55,-99.99,,,-99.99,,2013-02-20 21:41:00,
2013-02-20 13:52:00,47.0,32.0,-100.00,SW,225,8.0,11.0,57,-99.99,,,-99.99,,2013-02-20 21:52:00,
2013-02-20 14:01:00,47.0,32.0,-100.00,SW,225,8.0,11.0,57,-99.99,,,-99.99,,2013-02-20 22:01:00,
2013-02-20 14:11:00,46.0,31.0,-100.00,South,180,6.0,8.0,55,-99.99,,,-99.99,,2013-02-20 22:11:00,
2013-02-20 14:21:00,46.0,31.0,-100.00,South,180,6.0,8.0,55,-99.99,,,-99.99,,2013-02-20 22:21:00,
2013-02-20 14:31:00,46.0,31.0,-100.00,South,180,9.0,10.0,57,-99.99,,,-99.99,,2013-02-20 22:31:00,
2013-02-20 14:41:00,46.0,32.0,-100.00,South,180,8.0,9.0,58,-99.99,,,-99.99,,2013-02-20 22:41:00,
2013-02-20 14:51:00,46.0,32.0,-100.00,South,180,8.0,9.0,58,-99.99,,,-99.99,,2013-02-20 22:51:00,
2013-02-20 15:01:00,46.0,33.0,-100.00,South,180,2.0,3.0,61,-99.99,,,-99.99,,2013-02-20 23:01:00,
2013-02-20 15:12:00,46.0,33.0,-100.00,South,180,2.0,3.0,61,-99.99,,,-99.99,,2013-02-20 23:12:00,
2013-02-20 15:22:00,46.0,33.0,-100.00,South,180,2.0,3.0,61,-99.99,,,-99.99,,2013-02-20 23:22:00,
2013-02-20 15:31:00,47.0,31.0,-100.00,South,180,3.0,5.0,55,-99.99,,,-99.99,,2013-02-20 23:31:00,
2013-02-20 15:42:00,46.0,31.0,-100.00,South,180,4.0,5.0,55,-99.99,,,-99.99,,2013-02-20 23:42:00,
2013-02-20 15:52:00,46.0,31.0,-100.00,South,180,4.0,5.0,55,-99.99,,,-99.99,,2013-02-20 23:52:00,
2013-02-20 16:02:00,43.0,35.0,-100.00,SW,225,8.0,11.0,73,-99.99,,,-99.99,,2013-02-21 00:02:00,
2013-02-20 16:11:00,43.0,35.0,-100.00,SW,225,8.0,11.0,73,-99.99,,,-99.99,,2013-02-21 00:11:00,
2013-02-20 16:21:00,43.0,35.0,-100.00,SW,225,8.0,11.0,73,-99.99,,,-99.99,,2013-02-21 00:21:00,
2013-02-20 16:31:00,42.0,37.0,-100.00,East,90,1.0,1.0,83,-99.99,,,-99.99,,2013-02-21 00:31:00,
2013-02-20 16:42:00,42.0,37.0,-100.00,South,180,2.0,3.0,84,-99.99,,,-99.99,,2013-02-21 00:42:00,
2013-02-20 16:52:00,42.0,37.0,-100.00,South,180,2.0,3.0,84,-99.99,,,-99.99,,2013-02-21 00:52:00,
2013-02-20 17:01:00,42.0,38.0,-100.00,SE,135,1.0,2.0,85,-99.99,,,-99.99,,2013-02-21 01:01:00,
2013-02-20 17:11:00,42.0,38.0,-100.00,South,180,1.0,2.0,85,-99.99,,,-99.99,,2013-02-21 01:11:00,
2013-02-20 17:21:00,42.0,38.0,-100.00,South,180,1.0,2.0,85,-99.99,,,-99.99,,2013-02-21 01:21:00,
2013-02-20 17:32:00,42.0,38.0,-100.00,SE,135,0.0,1.0,86,-99.99,,,-99.99,,2013-02-21 01:32:00,
2013-02-20 17:41:00,42.0,38.0,-100.00,SE,135,2.0,6.0,87,-99.99,,,-99.99,,2013-02-21 01:41:00,
2013-02-20 17:52:00,42.0,38.0,-100.00,SE,135,2.0,6.0,87,-99.99,,,-99.99,,2013-02-21 01:52:00,
2013-02-20 18:01:00,42.0,38.0,-100.00,South,180,7.0,11.0,87,-99.99,,,-99.99,,2013-02-21 02:01:00,
2013-02-20 18:11:00,42.0,38.0,-100.00,SW,225,6.0,8.0,86,-99.99,,,-99.99,,2013-02-21 02:11:00,
2013-02-20 18:21:00,42.0,38.0,-100.00,SW,225,6.0,8.0,86,-99.99,,,-99.99,,2013-02-21 02:21:00,
2013-02-20 18:32:00,41.0,38.0,-100.00,SW,225,5.0,7.0,87,-99.99,,,-99.99,,2013-02-21 02:32:00,
2013-02-20 18:42:00,41.0,38.0,-100.00,SW,225,5.0,7.0,87,-99.99,,,-99.99,,2013-02-21 02:42:00,
2013-02-20 18:52:00,41.0,38.0,-100.00,SW,225,5.0,7.0,87,-99.99,,,-99.99,,2013-02-21 02:52:00,
2013-02-20 19:01:00,41.0,37.0,-100.00,SW,225,7.0,9.0,87,-99.99,,,-99.99,,2013-02-21 03:01:00,
2013-02-20 19:11:00,40.0,37.0,-100.00,SW,225,6.0,8.0,87,-99.99,,,-99.99,,2013-02-21 03:11:00,
2013-02-20 19:21:00,40.0,37.0,-100.00,SW,225,6.0,8.0,87,-99.99,,,-99.99,,2013-02-21 03:21:00,
2013-02-20 19:31:00,40.0,37.0,-100.00,South,180,5.0,6.0,88,-99.99,,,-99.99,,2013-02-21 03:31:00,
2013-02-20 19:41:00,40.0,37.0,-100.00,South,180,3.0,4.0,89,-99.99,,,-99.99,,2013-02-21 03:41:00,
2013-02-20 19:52:00,40.0,37.0,-100.00,South,180,3.0,4.0,89,-99.99,,,-99.99,,2013-02-21 03:52:00,
2013-02-20 20:01:00,40.0,37.0,-100.00,SW,225,5.0,6.0,89,-99.99,,,-99.99,,2013-02-21 04:01:00,
2013-02-20 20:11:00,39.0,36.0,-100.00,SE,135,1.0,2.0,89,-99.99,,,-99.99,,2013-02-21 04:11:00,
2013-02-20 20:21:00,39.0,36.0,-100.00,SE,135,1.0,2.0,89,-99.99,,,-99.99,,2013-02-21 04:21:00,
2013-02-20 20:31:00,39.0,36.0,-100.00,South,180,0.0,1.0,90,-99.99,,,-99.99,,2013-02-21 04:31:00,
2013-02-20 20:41:00,38.0,35.0,-100.00,SE,135,0.0,1.0,90,-99.99,,,-99.99,,2013-02-21 04:41:00,
2013-02-20 20:52:00,37.0,34.0,-100.00,South,180,0.0,1.0,90,-99.99,,,-99.99,,2013-02-21 04:52:00,
2013-02-20 21:02:00,37.0,34.0,-100.00,South,180,0.0,1.0,90,-99.99,,,-99.99,,2013-02-21 05:02:00,
2013-02-20 21:12:00,36.0,34.0,-100.00,NE,45,0.0,1.0,90,-99.99,,,-99.99,,2013-02-21 05:12:00,
2013-02-20 21:22:00,36.0,34.0,-100.00,NE,45,0.0,1.0,90,-99.99,,,-99.99,,2013-02-21 05:22:00,
2013-02-20 21:32:00,36.0,34.0,-100.00,North,0,0.0,1.0,90,-99.99,,,-99.99,,2013-02-21 05:32:00,
2013-02-20 21:42:00,37.0,34.0,-100.00,SW,225,3.0,3.0,90,-99.99,,,-99.99,,2013-02-21 05:42:00,
2013-02-20 22:01:00,37.0,34.0,-100.00,West,270,1.0,2.0,90,-99.99,,,-99.99,,2013-02-21 06:01:00,
2013-02-20 22:11:00,38.0,35.0,-100.00,South,180,3.0,3.0,90,-99.99,,,-99.99,,2013-02-21 06:11:00,
2013-02-20 22:21:00,38.0,35.0,-100.00,South,180,3.0,3.0,90,-99.99,,,-99.99,,2013-02-21 06:21:00,
2013-02-20 22:31:00,38.0,35.0,-100.00,SW,225,1.0,2.0,90,-99.99,,,-99.99,,2013-02-21 06:31:00,
2013-02-20 22:41:00,38.0,35.0,-100.00,SW,225,1.0,3.0,90,-99.99,,,-99.99,,2013-02-21 06:41:00,
2013-02-20 22:51:00,38.0,35.0,-100.00,SW,225,1.0,3.0,90,-99.99,,,-99.99,,2013-02-21 06:51:00,
2013-02-20 23:01:00,38.0,35.0,-100.00,SW,225,2.0,3.0,90,-99.99,,,-99.99,,2013-02-21 07:01:00,
2013-02-20 23:11:00,38.0,35.0,-100.00,South,180,5.0,6.0,90,-99.99,,,-99.99,,2013-02-21 07:11:00,
2013-02-20 23:21:00,38.0,35.0,-100.00,South,180,5.0,6.0,90,-99.99,,,-99.99,,2013-02-21 07:21:00,
2013-02-20 23:31:00,38.0,35.0,-100.00,SW,225,4.0,6.0,90,-99.99,,,-99.99,,2013-02-21 07:31:00,
2013-02-20 23:41:00,38.0,35.0,-100.00,SW,225,3.0,3.0,90,-99.99,,,-99.99,,2013-02-21 07:41:00,
2013-02-20 23:52:00,38.0,35.0,-100.00,SW,225,3.0,3.0,90,-99.99,,,-99.99,,2013-02-21 07:52:00,